HTMU

Musoma Airport

Musoma, Tanzania
METAR HTMU 231700Z 27010KT 9999 FEW023CB 24/19 Q1011
Observed Flight Rules
Feb-23 @ 17:00 UTC (6 hours ago) Visual Flight Rules
Wind Visibility Clouds
270° at 10 knots 10,000+ meters
  • Few at 2,300' AGL
Temperatures Readings
Current 24°C / 75°F
Dewpoint 19°C / 66°F
Humidity 74%
Altimeter 29.85" Hg
Pressure 1011 hPa
Elevation 1147
METAR HTMU 231700Z 27010KT 9999 FEW023CB 24/19 Q1011
Observed Flight Rules
Feb-23 @ 17:00 UTC
(6 hours ago)
VFR
Wind Visibility
270° at 10 knots 10,000+ meters
Clouds
  • Few at 2,300' AGL
Temperature Dewpoint
24°C / 75°F 19°C / 66°F
Humidity Altimeter Pressure
74% 29.85" Hg 1011 hPa